createdAt,value
2023-05-10T00:00:01.527Z,100838.66
2023-05-10T00:02:40.287Z,100833.41
2023-05-10T00:05:07.800Z,100827.59
2023-05-10T00:07:34.343Z,100826.78
2023-05-10T00:10:00.846Z,100826.41
2023-05-10T00:12:27.303Z,100831.38
2023-05-10T00:14:53.707Z,100819.59
2023-05-10T00:17:20.455Z,100829.47
2023-05-10T00:19:46.841Z,100827.81
2023-05-10T00:22:13.226Z,100825.69
2023-05-10T00:24:39.613Z,100824.53
2023-05-10T00:27:06.016Z,100828.88
2023-05-10T00:29:32.724Z,100816.97
2023-05-10T00:31:59.290Z,100819.44
2023-05-10T00:34:25.774Z,100814.59
2023-05-10T00:36:52.237Z,100814.34
2023-05-10T00:39:18.640Z,100817.63
2023-05-10T00:41:45.156Z,100819.28
2023-05-10T00:44:12.167Z,100829.09
2023-05-10T00:46:38.734Z,100827.22
2023-05-10T00:49:05.371Z,100826.97
2023-05-10T00:51:32.307Z,100827.53
2023-05-10T00:53:59.420Z,100812.91
2023-05-10T00:56:26.464Z,100817.28
2023-05-10T00:58:52.995Z,100819.16
2023-05-10T01:01:20.471Z,100825.41
2023-05-10T01:03:47.985Z,100822.69
2023-05-10T01:06:15.696Z,100824.59
2023-05-10T01:08:42.407Z,100825.41
2023-05-10T01:11:09.141Z,100827.06
2023-05-10T01:13:38.834Z,100827.06
2023-05-10T01:16:07.366Z,100818.91
2023-05-10T01:18:37.538Z,100819.50
2023-05-10T01:21:10.672Z,100820.66
2023-05-10T01:23:56.756Z,100825.00
2023-05-10T01:26:58.412Z,100823.97
2023-05-10T01:29:33.241Z,100829.41
2023-05-10T01:32:11.532Z,100826.19
2023-05-10T01:35:11.661Z,100815.91
2023-05-10T01:38:05.990Z,100822.50
2023-05-10T01:41:20.686Z,100819.28
2023-05-10T01:43:52.509Z,100820.38
2023-05-10T01:46:28.104Z,100823.09
2023-05-10T01:48:58.275Z,100831.22
2023-05-10T01:51:26.190Z,100826.63
2023-05-10T01:54:01.310Z,100825.78
2023-05-10T01:56:30.418Z,100829.56
2023-05-10T01:58:58.199Z,100828.75
2023-05-10T02:01:27.119Z,100826.28
2023-05-10T02:03:55.429Z,100824.66
2023-05-10T02:06:23.831Z,100827.94
2023-05-10T02:08:52.459Z,100821.69
2023-05-10T02:11:22.431Z,100836.06
2023-05-10T02:13:51.301Z,100838.78
2023-05-10T02:16:19.181Z,100835.00
2023-05-10T02:18:47.828Z,100833.94
2023-05-10T02:21:16.311Z,100831.22
2023-05-10T02:23:44.196Z,100835.00
2023-05-10T02:26:12.863Z,100833.38
2023-05-10T02:28:41.293Z,100839.03
2023-05-10T02:31:08.280Z,100846.34
2023-05-10T02:33:35.045Z,100844.72
2023-05-10T02:36:03.595Z,100845.69
2023-05-10T02:38:32.294Z,100848.84
2023-05-10T02:41:00.130Z,100843.44
2023-05-10T02:43:27.082Z,100851.56
2023-05-10T02:45:53.726Z,100858.06
2023-05-10T02:48:20.211Z,100860.78
2023-05-10T02:50:52.121Z,100861.28
2023-05-10T02:53:25.885Z,100854.19
2023-05-10T02:55:58.409Z,100853.38
2023-05-10T02:58:24.896Z,100857.41
2023-05-10T03:00:51.422Z,100857.97
2023-05-10T03:03:17.811Z,100859.03
2023-05-10T03:05:44.218Z,100856.81
2023-05-10T03:08:11.097Z,100857.28
2023-05-10T03:10:48.748Z,100864.16
2023-05-10T03:13:55.190Z,100861.34
2023-05-10T03:16:42.070Z,100863.94
2023-05-10T03:19:28.589Z,100866.03
2023-05-10T03:22:00.226Z,100871.44
2023-05-10T03:24:31.539Z,100871.09
2023-05-10T03:27:03.704Z,100877.84
2023-05-10T03:29:30.515Z,100871.00
2023-05-10T03:32:00.078Z,100878.31
2023-05-10T03:34:31.396Z,100881.25
2023-05-10T03:36:58.314Z,100887.50
2023-05-10T03:39:26.420Z,100879.16
2023-05-10T03:41:56.984Z,100872.28
2023-05-10T03:44:23.365Z,100879.00
2023-05-10T03:46:50.170Z,100875.47
2023-05-10T03:49:16.937Z,100882.78
2023-05-10T03:51:44.089Z,100881.13
2023-05-10T03:54:10.488Z,100872.19
2023-05-10T03:56:36.957Z,100869.47
2023-05-10T03:59:08.083Z,100871.34
2023-05-10T04:01:35.367Z,100875.97
2023-05-10T04:04:02.203Z,100877.03
2023-05-10T04:06:31.781Z,100884.09
2023-05-10T04:09:00.775Z,100883.03
2023-05-10T04:11:27.344Z,100878.66
2023-05-10T04:13:54.223Z,100888.44
2023-05-10T04:16:20.709Z,100889.50
2023-05-10T04:18:47.182Z,100890.09
2023-05-10T04:21:14.512Z,100880.91
2023-05-10T04:23:40.933Z,100883.63
2023-05-10T04:26:07.901Z,100892.34
2023-05-10T04:28:34.377Z,100881.72
2023-05-10T04:31:05.435Z,100882.31
2023-05-10T04:33:32.308Z,100882.31
2023-05-10T04:35:58.821Z,100884.78
2023-05-10T04:38:25.594Z,100888.56
2023-05-10T04:40:52.190Z,100888.34
2023-05-10T04:43:18.641Z,100888.94
2023-05-10T04:45:45.236Z,100890.81
2023-05-10T04:48:12.222Z,100895.75
2023-05-10T04:50:38.851Z,100895.53
2023-05-10T04:53:05.280Z,100895.28
2023-05-10T04:55:31.866Z,100900.25
2023-05-10T04:57:59.934Z,100906.03
2023-05-10T05:00:26.375Z,100911.44
2023-05-10T05:02:52.929Z,100910.63
2023-05-10T05:05:19.432Z,100918.31
2023-05-10T05:07:45.863Z,100919.38
2023-05-10T05:10:12.270Z,100912.88
2023-05-10T05:12:38.704Z,100914.28
2023-05-10T05:15:07.311Z,100916.75
2023-05-10T05:17:35.724Z,100910.84
2023-05-10T05:20:02.519Z,100917.44
2023-05-10T05:22:29.380Z,100920.53
2023-05-10T05:24:56.477Z,100918.41
2023-05-10T05:27:25.116Z,100928.19
2023-05-10T05:29:53.072Z,100927.38
2023-05-10T05:32:19.594Z,100933.88
2023-05-10T05:34:46.828Z,100935.75
2023-05-10T05:37:17.738Z,100936.81
2023-05-10T05:39:44.649Z,100927.38
2023-05-10T05:42:12.642Z,100936.69
2023-05-10T05:44:39.522Z,100931.84
2023-05-10T05:47:06.813Z,100934.06
2023-05-10T05:49:33.428Z,100932.16
2023-05-10T05:52:04.491Z,100938.44
2023-05-10T05:54:32.057Z,100940.06
2023-05-10T05:57:01.037Z,100943.41
2023-05-10T05:59:28.321Z,100945.88
2023-05-10T06:01:54.876Z,100940.91
2023-05-10T06:04:21.493Z,100947.97
2023-05-10T06:06:47.891Z,100955.06
2023-05-10T06:09:14.316Z,100957.56
2023-05-10T06:11:40.924Z,100957.56
2023-05-10T06:14:08.749Z,100964.06
2023-05-10T06:16:35.998Z,100969.34
2023-05-10T06:19:03.795Z,100973.13
2023-05-10T06:21:30.904Z,100971.00
2023-05-10T06:23:57.660Z,100977.25
2023-05-10T06:26:24.242Z,100980.34
2023-05-10T06:28:50.691Z,100980.34
2023-05-10T06:31:17.196Z,100973.84
2023-05-10T06:33:43.650Z,100979.28
2023-05-10T06:36:10.136Z,100979.28
2023-05-10T06:38:36.651Z,100975.97
2023-05-10T06:41:03.064Z,100982.56
2023-05-10T06:43:29.751Z,100974.03
2023-05-10T06:45:56.826Z,100986.91
2023-05-10T06:48:23.309Z,100986.44
2023-05-10T06:50:49.965Z,100984.31
2023-05-10T06:53:16.396Z,100983.97
2023-05-10T06:55:42.794Z,100985.84
2023-05-10T06:58:09.182Z,100990.22
2023-05-10T07:00:35.762Z,100993.84
2023-05-10T07:03:02.233Z,100992.44
2023-05-10T07:05:28.941Z,101000.66
2023-05-10T07:07:55.607Z,100999.03
2023-05-10T07:10:22.097Z,101006.69
2023-05-10T07:12:48.682Z,101006.09
2023-05-10T07:15:17.138Z,101011.50
2023-05-10T07:17:45.932Z,101012.91
2023-05-10T07:20:13.104Z,101018.34
2023-05-10T07:22:39.568Z,101006.50
2023-05-10T07:25:06.719Z,101008.28
2023-05-10T07:27:33.540Z,101015.44
2023-05-10T07:30:00.096Z,101020.88
2023-05-10T07:32:26.909Z,101020.63
2023-05-10T07:34:53.534Z,101028.94
2023-05-10T07:37:20.003Z,101032.72
2023-05-10T07:39:46.475Z,101034.88
2023-05-10T07:42:12.905Z,101039.44
2023-05-10T07:44:39.340Z,101040.38
2023-05-10T07:47:05.732Z,101038.91
2023-05-10T07:49:32.144Z,101047.69
2023-05-10T07:51:58.583Z,101050.00
2023-05-10T07:54:24.977Z,101050.69
2023-05-10T07:56:51.941Z,101049.97
2023-05-10T07:59:18.770Z,101052.44
2023-05-10T08:01:45.734Z,101064.00
2023-05-10T08:04:12.780Z,101062.47
2023-05-10T08:06:40.224Z,101064.00
2023-05-10T08:09:06.679Z,101068.03
2023-05-10T08:11:34.861Z,101065.19
2023-05-10T08:14:01.567Z,101065.59
2023-05-10T08:16:28.439Z,101078.88
2023-05-10T08:18:56.223Z,101071.59
2023-05-10T08:21:22.853Z,101068.81
2023-05-10T08:23:49.920Z,101064.41
2023-05-10T08:26:16.505Z,101069.00
2023-05-10T08:28:42.923Z,101067.00
2023-05-10T08:31:09.426Z,101076.44
2023-05-10T08:33:35.987Z,101070.00
2023-05-10T08:36:02.514Z,101077.91
2023-05-10T08:38:28.942Z,101085.69
2023-05-10T08:40:59.358Z,101091.47
2023-05-10T08:43:30.130Z,101097.47
2023-05-10T08:45:57.677Z,101096.41
2023-05-10T08:48:25.746Z,101099.56
2023-05-10T08:50:55.945Z,101104.22
2023-05-10T08:53:25.647Z,101114.19
2023-05-10T08:55:52.708Z,101108.00
2023-05-10T08:58:20.533Z,101103.72
2023-05-10T09:00:49.408Z,101112.00
2023-05-10T09:03:16.581Z,101114.72
2023-05-10T09:05:43.225Z,101121.00
2023-05-10T09:08:10.285Z,101117.53
2023-05-10T09:10:37.904Z,101109.03
2023-05-10T09:13:04.960Z,101108.94
2023-05-10T09:15:31.762Z,101106.91
2023-05-10T09:18:00.287Z,101109.56
2023-05-10T09:20:26.874Z,101119.03
2023-05-10T09:22:53.379Z,101112.59
2023-05-10T09:25:20.190Z,101114.88
2023-05-10T09:27:48.393Z,101124.72
2023-05-10T09:30:26.812Z,101120.47
2023-05-10T09:32:54.477Z,101127.69
2023-05-10T09:35:24.614Z,101129.34
2023-05-10T09:37:54.670Z,101135.50
2023-05-10T09:40:23.094Z,101129.88
2023-05-10T09:43:01.269Z,101134.06
2023-05-10T09:45:32.755Z,101141.41
2023-05-10T09:48:01.655Z,101135.94
2023-05-10T09:50:28.382Z,101139.94
2023-05-10T09:52:58.798Z,101143.38
2023-05-10T09:55:40.689Z,101144.22
2023-05-10T09:58:11.126Z,101139.81
2023-05-10T10:00:39.712Z,101150.16
2023-05-10T10:03:07.336Z,101157.28
2023-05-10T10:05:35.549Z,101155.75
2023-05-10T10:08:05.248Z,101153.50
2023-05-10T10:10:33.506Z,101162.19
2023-05-10T10:13:00.803Z,101157.63
2023-05-10T10:15:27.400Z,101163.53
2023-05-10T10:17:54.605Z,101161.81
2023-05-10T10:20:23.534Z,101166.72
2023-05-10T10:22:50.457Z,101168.28
2023-05-10T10:25:18.907Z,101168.81
2023-05-10T10:27:54.797Z,101170.16
2023-05-10T10:30:21.313Z,101171.66
2023-05-10T10:33:10.190Z,101163.78
2023-05-10T10:35:44.756Z,101167.56
2023-05-10T10:38:13.933Z,101172.22
2023-05-10T10:40:40.471Z,101174.97
2023-05-10T10:43:22.947Z,101169.25
2023-05-10T10:46:11.130Z,101176.09
2023-05-10T10:48:37.566Z,101171.16
2023-05-10T10:51:04.161Z,101173.88
2023-05-10T10:53:31.391Z,101178.22
2023-05-10T10:56:16.043Z,101178.13
2023-05-10T10:58:49.807Z,101177.03
2023-05-10T11:01:18.174Z,101175.41
2023-05-10T11:03:59.964Z,101174.69
2023-05-10T11:06:34.321Z,101174.81
2023-05-10T11:09:07.404Z,101180.31
2023-05-10T11:11:35.761Z,101181.44
2023-05-10T11:14:08.547Z,101179.03
2023-05-10T11:16:45.639Z,101185.06
2023-05-10T11:19:13.898Z,101178.88
2023-05-10T11:21:49.347Z,101185.50
2023-05-10T11:24:18.712Z,101184.22
2023-05-10T11:26:45.513Z,101177.63
2023-05-10T11:29:14.619Z,101184.72
2023-05-10T11:31:48.512Z,101193.88
2023-05-10T11:34:31.074Z,101190.16
2023-05-10T11:36:58.314Z,101185.50
2023-05-10T11:39:29.798Z,101186.03
2023-05-10T11:41:56.870Z,101192.97
2023-05-10T11:44:23.835Z,101187.06
2023-05-10T11:46:50.782Z,101178.72
2023-05-10T11:49:17.247Z,101187.59
2023-05-10T11:51:44.438Z,101187.72
2023-05-10T11:54:12.027Z,101189.44
2023-05-10T11:56:42.105Z,101185.59
2023-05-10T11:59:09.231Z,101176.63
2023-05-10T12:01:36.643Z,101194.41
2023-05-10T12:04:03.364Z,101197.78
2023-05-10T12:06:32.773Z,101187.97
2023-05-10T12:09:00.076Z,101193.16
2023-05-10T12:11:28.730Z,101191.78
2023-05-10T12:13:57.106Z,101195.06
2023-05-10T12:16:26.465Z,101198.06
2023-05-10T12:18:55.098Z,101192.63
2023-05-10T12:21:22.496Z,101202.75
2023-05-10T12:23:54.197Z,101201.66
2023-05-10T12:26:25.469Z,101191.25
2023-05-10T12:28:51.920Z,101184.94
2023-05-10T12:31:18.328Z,101181.66
2023-05-10T12:33:46.206Z,101195.91
2023-05-10T12:36:14.350Z,101186.84
2023-05-10T12:38:51.993Z,101193.44
2023-05-10T12:41:19.102Z,101196.75
2023-05-10T12:43:47.275Z,101196.75
2023-05-10T12:46:18.461Z,101188.56
2023-05-10T12:48:47.118Z,101194.00
2023-05-10T12:51:16.434Z,101191.53
2023-05-10T12:53:45.063Z,101195.63
2023-05-10T12:56:12.474Z,101196.75
2023-05-10T12:58:39.351Z,101203.84
2023-05-10T13:01:06.316Z,101203.53
2023-05-10T13:03:33.040Z,101204.88
2023-05-10T13:05:59.634Z,101204.97
2023-05-10T13:08:26.086Z,101213.72
2023-05-10T13:10:52.814Z,101210.72
2023-05-10T13:13:19.272Z,101210.16
2023-05-10T13:15:45.689Z,101209.06
2023-05-10T13:18:12.145Z,101210.72
2023-05-10T13:20:38.799Z,101208.81
2023-05-10T13:23:05.324Z,101216.75
2023-05-10T13:25:31.800Z,101223.91
2023-05-10T13:27:58.192Z,101226.31
2023-05-10T13:30:24.919Z,101231.63
2023-05-10T13:32:51.442Z,101244.47
2023-05-10T13:35:17.975Z,101241.88
2023-05-10T13:37:44.402Z,101246.44
2023-05-10T13:40:11.058Z,101247.81
2023-05-10T13:42:37.475Z,101250.09
2023-05-10T13:45:04.256Z,101257.06
2023-05-10T13:47:30.840Z,101258.00
2023-05-10T13:49:58.317Z,101250.09
2023-05-10T13:52:24.741Z,101253.13
2023-05-10T13:54:52.934Z,101250.63
2023-05-10T13:57:19.536Z,101260.00
2023-05-10T13:59:45.966Z,101255.13
2023-05-10T14:02:14.042Z,101266.78
2023-05-10T14:04:40.716Z,101271.06
2023-05-10T14:07:07.190Z,101270.16
2023-05-10T14:09:33.641Z,101264.22
2023-05-10T14:12:00.065Z,101271.47
2023-05-10T14:14:26.855Z,101268.41
2023-05-10T14:16:53.233Z,101272.19
2023-05-10T14:19:20.167Z,101271.13
2023-05-10T14:21:46.626Z,101264.84
2023-05-10T14:24:13.046Z,101269.47
2023-05-10T14:26:39.474Z,101268.84
2023-05-10T14:29:05.874Z,101274.78
2023-05-10T14:31:32.765Z,101272.06
2023-05-10T14:34:00.043Z,101274.19
2023-05-10T14:36:26.582Z,101270.91
2023-05-10T14:38:53.101Z,101270.91
2023-05-10T14:41:19.563Z,101273.13
2023-05-10T14:43:46.117Z,101273.72
2023-05-10T14:46:12.766Z,101272.66
2023-05-10T14:48:39.227Z,101262.00
2023-05-10T14:51:05.866Z,101267.69
2023-05-10T14:53:32.266Z,101268.66
2023-05-10T14:55:58.781Z,101266.75
2023-05-10T14:58:25.189Z,101261.91
2023-05-10T15:00:51.933Z,101264.97
2023-05-10T15:03:18.922Z,101268.03
2023-05-10T15:05:45.943Z,101263.28
2023-05-10T15:08:13.472Z,101269.88
2023-05-10T15:10:40.679Z,101268.00
2023-05-10T15:13:07.088Z,101260.75
2023-05-10T15:15:33.557Z,101265.25
2023-05-10T15:18:00.133Z,101268.31
2023-05-10T15:20:26.761Z,101268.06
2023-05-10T15:22:53.216Z,101269.22
2023-05-10T15:25:20.923Z,101269.19
2023-05-10T15:27:47.441Z,101259.91
2023-05-10T15:30:14.185Z,101269.44
2023-05-10T15:32:41.401Z,101263.06
2023-05-10T15:35:09.024Z,101267.97
2023-05-10T15:37:35.470Z,101269.56
2023-05-10T15:40:04.757Z,101263.16
2023-05-10T15:42:32.600Z,101261.38
2023-05-10T15:44:59.535Z,101267.84
2023-05-10T15:47:27.863Z,101270.72
2023-05-10T15:49:54.334Z,101261.03
2023-05-10T15:52:28.381Z,101270.03
2023-05-10T15:54:57.668Z,101280.63
2023-05-10T15:57:28.829Z,101278.22
2023-05-10T15:59:56.260Z,101279.50
2023-05-10T16:02:23.539Z,101285.69
2023-05-10T16:04:50.084Z,101284.78
2023-05-10T16:07:16.476Z,101288.59
2023-05-10T16:09:43.066Z,101288.41
2023-05-10T16:12:09.552Z,101286.88
2023-05-10T16:14:35.973Z,101298.78
2023-05-10T16:17:06.350Z,101294.13
2023-05-10T16:19:33.015Z,101294.97
2023-05-10T16:21:59.467Z,101288.84
2023-05-10T16:24:26.277Z,101292.94
2023-05-10T16:26:53.008Z,101293.88
2023-05-10T16:29:19.560Z,101292.59
2023-05-10T16:31:46.267Z,101295.13
2023-05-10T16:34:12.739Z,101292.41
2023-05-10T16:36:39.167Z,101296.78
2023-05-10T16:39:05.617Z,101291.63
2023-05-10T16:41:35.368Z,101300.34
2023-05-10T16:44:02.438Z,101296.78
2023-05-10T16:46:29.018Z,101300.59
2023-05-10T16:48:55.707Z,101303.25
2023-05-10T16:51:22.152Z,101299.47
2023-05-10T16:53:48.583Z,101292.09
2023-05-10T16:56:17.585Z,101297.91
2023-05-10T16:58:44.346Z,101303.13
2023-05-10T17:01:10.941Z,101304.31
2023-05-10T17:03:37.469Z,101299.78
2023-05-10T17:06:05.949Z,101302.06
2023-05-10T17:08:32.828Z,101310.38
2023-05-10T17:11:03.752Z,101300.59
2023-05-10T17:13:30.929Z,101308.03
2023-05-10T17:15:57.971Z,101307.19
2023-05-10T17:18:24.631Z,101314.97
2023-05-10T17:20:51.123Z,101310.88
2023-05-10T17:23:17.593Z,101313.09
2023-05-10T17:25:43.987Z,101321.03
2023-05-10T17:28:10.688Z,101322.69
2023-05-10T17:30:37.150Z,101323.56
2023-05-10T17:33:03.720Z,101326.13
2023-05-10T17:35:33.282Z,101322.63
2023-05-10T17:37:59.740Z,101326.94
2023-05-10T17:40:26.222Z,101326.03
2023-05-10T17:42:52.708Z,101327.94
2023-05-10T17:45:19.383Z,101326.28
2023-05-10T17:47:46.250Z,101336.91
2023-05-10T17:50:12.744Z,101341.41
2023-05-10T17:52:39.370Z,101343.06
2023-05-10T17:55:06.345Z,101348.97
2023-05-10T17:57:33.221Z,101345.66
2023-05-10T17:59:59.903Z,101352.50
2023-05-10T18:02:26.355Z,101345.50
2023-05-10T18:04:52.919Z,101347.41
2023-05-10T18:07:20.252Z,101346.31
2023-05-10T18:09:46.697Z,101352.75
2023-05-10T18:12:13.198Z,101361.94
2023-05-10T18:14:41.012Z,101365.03
2023-05-10T18:17:09.194Z,101358.41
2023-05-10T18:19:35.815Z,101360.56
2023-05-10T18:22:02.509Z,101358.97
2023-05-10T18:24:38.350Z,101356.13
2023-05-10T18:27:06.581Z,101359.50
2023-05-10T18:29:33.082Z,101361.00
2023-05-10T18:31:59.602Z,101354.97
2023-05-10T18:34:26.071Z,101362.03
2023-05-10T18:36:52.691Z,101359.66
2023-05-10T18:39:19.166Z,101365.84
2023-05-10T18:41:45.770Z,101359.84
2023-05-10T18:44:12.235Z,101365.31
2023-05-10T18:46:38.893Z,101366.63
2023-05-10T18:49:06.433Z,101366.28
2023-05-10T18:51:32.989Z,101371.81
2023-05-10T18:53:59.466Z,101367.03
2023-05-10T18:56:25.946Z,101377.00
2023-05-10T18:58:52.728Z,101378.16
2023-05-10T19:01:19.256Z,101376.25
2023-05-10T19:03:45.794Z,101375.44
2023-05-10T19:06:12.280Z,101379.47
2023-05-10T19:08:38.765Z,101379.22
2023-05-10T19:11:05.193Z,101375.69
2023-05-10T19:13:31.782Z,101389.44
2023-05-10T19:16:21.824Z,101387.56
2023-05-10T19:18:49.978Z,101393.41
2023-05-10T19:21:17.078Z,101394.59
2023-05-10T19:23:43.782Z,101397.31
2023-05-10T19:26:11.028Z,101394.00
2023-05-10T19:28:37.591Z,101397.69
2023-05-10T19:31:04.167Z,101398.25
2023-05-10T19:33:30.723Z,101398.84
2023-05-10T19:35:57.227Z,101404.28
2023-05-10T19:38:25.398Z,101398.25
2023-05-10T19:40:57.884Z,101405.34
2023-05-10T19:43:26.802Z,101409.97
2023-05-10T19:45:53.378Z,101410.06
2023-05-10T19:48:19.834Z,101415.88
2023-05-10T19:50:46.264Z,101411.84
2023-05-10T19:53:12.948Z,101413.63
2023-05-10T19:55:39.399Z,101415.59
2023-05-10T19:58:05.994Z,101405.38
2023-05-10T20:00:32.485Z,101415.41
2023-05-10T20:02:58.999Z,101421.53
2023-05-10T20:05:25.592Z,101412.91
2023-05-10T20:07:52.371Z,101413.78
2023-05-10T20:10:19.000Z,101420.25
2023-05-10T20:12:51.541Z,101415.50
2023-05-10T20:15:20.093Z,101416.69
2023-05-10T20:17:47.802Z,101417.97
2023-05-10T20:20:16.557Z,101419.47
2023-05-10T20:22:44.239Z,101421.78
2023-05-10T20:25:11.091Z,101422.19
2023-05-10T20:27:37.574Z,101429.50
2023-05-10T20:30:05.633Z,101425.50
2023-05-10T20:32:32.447Z,101429.09
2023-05-10T20:34:58.948Z,101427.41
2023-05-10T20:37:27.257Z,101425.75
2023-05-10T20:39:54.135Z,101427.63
2023-05-10T20:42:21.954Z,101432.81
2023-05-10T20:44:48.657Z,101431.63
2023-05-10T20:47:15.785Z,101432.09
2023-05-10T20:49:42.645Z,101433.75
2023-05-10T20:52:10.272Z,101432.09
2023-05-10T20:54:36.668Z,101430.44
2023-05-10T20:57:05.763Z,101433.38
2023-05-10T20:59:32.258Z,101430.91
2023-05-10T21:01:59.080Z,101430.06
2023-05-10T21:04:25.931Z,101430.91
2023-05-10T21:06:53.230Z,101430.31
2023-05-10T21:09:19.736Z,101431.81
2023-05-10T21:11:46.202Z,101433.44
2023-05-10T21:14:12.628Z,101426.38
2023-05-10T21:16:39.118Z,101431.44
2023-05-10T21:19:07.164Z,101430.16
2023-05-10T21:21:33.978Z,101431.13
2023-05-10T21:24:00.429Z,101427.13
2023-05-10T21:26:26.939Z,101433.38
2023-05-10T21:28:53.425Z,101427.97
2023-05-10T21:31:20.199Z,101420.88
2023-05-10T21:33:46.727Z,101422.75
2023-05-10T21:36:13.930Z,101420.88
2023-05-10T21:38:41.001Z,101423.34
2023-05-10T21:41:08.046Z,101414.16
2023-05-10T21:43:34.682Z,101419.13
2023-05-10T21:46:01.471Z,101418.06
2023-05-10T21:48:28.056Z,101418.66
2023-05-10T21:50:54.540Z,101427.63
2023-05-10T21:53:20.993Z,101424.69
2023-05-10T21:55:48.079Z,101420.94
2023-05-10T21:58:14.600Z,101419.88
2023-05-10T22:00:41.103Z,101420.94
2023-05-10T22:03:07.705Z,101425.31
2023-05-10T22:05:34.307Z,101431.16
2023-05-10T22:08:01.009Z,101431.03
2023-05-10T22:10:27.499Z,101431.72
2023-05-10T22:12:53.940Z,101436.41
2023-05-10T22:15:20.399Z,101439.66
2023-05-10T22:17:46.970Z,101431.53
2023-05-10T22:20:13.777Z,101441.94
2023-05-10T22:22:40.246Z,101433.31
2023-05-10T22:25:07.650Z,101437.22
2023-05-10T22:27:34.564Z,101432.41
2023-05-10T22:30:01.457Z,101434.69
2023-05-10T22:32:28.250Z,101437.63
2023-05-10T22:34:54.944Z,101440.53
2023-05-10T22:37:21.396Z,101435.97
2023-05-10T22:39:49.045Z,101434.91
2023-05-10T22:42:15.904Z,101433.25
2023-05-10T22:44:43.612Z,101438.47
2023-05-10T22:47:10.628Z,101438.00
2023-05-10T22:49:37.587Z,101434.22
2023-05-10T22:52:04.005Z,101437.75
2023-05-10T22:54:30.536Z,101432.09
2023-05-10T22:56:57.084Z,101437.53
2023-05-10T22:59:23.685Z,101439.19
2023-05-10T23:01:50.622Z,101437.53
2023-05-10T23:04:17.293Z,101437.75
2023-05-10T23:06:43.811Z,101432.56
2023-05-10T23:09:10.274Z,101436.09
2023-05-10T23:11:36.781Z,101439.06
2023-05-10T23:14:03.669Z,101440.09
2023-05-10T23:16:30.496Z,101448.25
2023-05-10T23:18:57.093Z,101450.97
2023-05-10T23:21:25.065Z,101443.66
2023-05-10T23:23:51.803Z,101453.47
2023-05-10T23:26:18.197Z,101455.56
2023-05-10T23:28:44.582Z,101454.75
2023-05-10T23:31:11.014Z,101462.25
2023-05-10T23:33:37.498Z,101462.25
2023-05-10T23:36:04.123Z,101453.97
2023-05-10T23:38:30.624Z,101452.31
2023-05-10T23:40:57.054Z,101459.88
2023-05-10T23:43:25.108Z,101456.09
2023-05-10T23:45:56.559Z,101458.22
2023-05-10T23:48:23.466Z,101458.66
2023-05-10T23:50:50.242Z,101451.59
2023-05-10T23:53:16.793Z,101461.63
2023-05-10T23:55:43.427Z,101459.56
2023-05-10T23:58:09.913Z,101452.47
